createdAt,value
2023-01-02T00:00:55.057Z,96640.09
2023-01-02T00:03:21.905Z,96639.31
2023-01-02T00:05:48.697Z,96633.75
2023-01-02T00:08:17.929Z,96626.53
2023-01-02T00:10:44.740Z,96634.50
2023-01-02T00:13:11.338Z,96630.84
2023-01-02T00:15:38.069Z,96637.94
2023-01-02T00:18:04.671Z,96628.03
2023-01-02T00:20:31.369Z,96625.06
2023-01-02T00:22:58.266Z,96624.41
2023-01-02T00:25:24.823Z,96618.00
2023-01-02T00:27:51.437Z,96621.47
2023-01-02T00:30:18.704Z,96616.28
2023-01-02T00:32:45.274Z,96620.47
2023-01-02T00:35:11.856Z,96619.75
2023-01-02T00:37:38.574Z,96611.66
2023-01-02T00:40:06.172Z,96617.34
2023-01-02T00:42:32.814Z,96610.78
2023-01-02T00:44:59.396Z,96607.16
2023-01-02T00:47:25.987Z,96607.69
2023-01-02T00:49:52.560Z,96601.34
2023-01-02T00:52:19.139Z,96603.50
2023-01-02T00:54:45.726Z,96605.63
2023-01-02T00:57:12.343Z,96599.75
2023-01-02T00:59:38.919Z,96604.78
2023-01-02T01:02:05.604Z,96601.34
2023-01-02T01:04:36.941Z,96609.22
2023-01-02T01:07:03.840Z,96612.50
2023-01-02T01:09:30.585Z,96603.13
2023-01-02T01:11:57.261Z,96601.25
2023-01-02T01:14:23.995Z,96599.34
2023-01-02T01:16:50.700Z,96613.19
2023-01-02T01:19:17.271Z,96613.25
2023-01-02T01:21:43.899Z,96621.22
2023-01-02T01:24:10.491Z,96621.22
2023-01-02T01:26:37.172Z,96618.09
2023-01-02T01:29:03.777Z,96613.09
2023-01-02T01:31:30.371Z,96609.06
2023-01-02T01:33:56.976Z,96606.94
2023-01-02T01:36:25.163Z,96608.63
2023-01-02T01:38:51.788Z,96613.47
2023-01-02T01:41:21.474Z,96616.13
2023-01-02T01:43:51.850Z,96608.66
2023-01-02T01:46:35.693Z,96614.59
2023-01-02T01:49:30.351Z,96604.34
2023-01-02T01:52:04.487Z,96596.75
2023-01-02T01:54:45.030Z,96601.56
2023-01-02T01:57:33.505Z,96596.72
2023-01-02T02:00:01.935Z,96586.31
2023-01-02T02:02:30.287Z,96594.50
2023-01-02T02:05:00.013Z,96595.13
2023-01-02T02:07:27.713Z,96592.97
2023-01-02T02:10:03.205Z,96596.22
2023-01-02T02:12:30.886Z,96588.75
2023-01-02T02:14:57.449Z,96588.72
2023-01-02T02:17:52.034Z,96587.97
2023-01-02T02:20:27.578Z,96588.19
2023-01-02T02:23:00.190Z,96586.59
2023-01-02T02:25:46.951Z,96584.47
2023-01-02T02:28:25.593Z,96582.28
2023-01-02T02:31:28.156Z,96581.59
2023-01-02T02:34:04.162Z,96582.56
2023-01-02T02:36:38.355Z,96564.19
2023-01-02T02:39:10.836Z,96572.50
2023-01-02T02:42:14.389Z,96569.63
2023-01-02T02:44:59.458Z,96565.00
2023-01-02T02:47:38.601Z,96563.84
2023-01-02T02:50:12.303Z,96557.22
2023-01-02T02:52:46.511Z,96562.59
2023-01-02T02:55:20.030Z,96561.28
2023-01-02T02:57:48.129Z,96561.88
2023-01-02T03:00:18.917Z,96558.75
2023-01-02T03:02:46.093Z,96555.59
2023-01-02T03:05:34.522Z,96565.56
2023-01-02T03:08:23.994Z,96553.53
2023-01-02T03:11:00.184Z,96556.72
2023-01-02T03:13:41.737Z,96562.56
2023-01-02T03:16:29.293Z,96564.66
2023-01-02T03:19:08.119Z,96563.97
2023-01-02T03:22:21.104Z,96560.69
2023-01-02T03:24:51.430Z,96567.72
2023-01-02T03:27:23.112Z,96559.28
2023-01-02T03:29:56.508Z,96553.44
2023-01-02T03:32:29.227Z,96552.66
2023-01-02T03:34:56.161Z,96561.72
2023-01-02T03:37:28.988Z,96559.28
2023-01-02T03:39:59.056Z,96551.66
2023-01-02T03:42:30.315Z,96548.94
2023-01-02T03:44:59.519Z,96554.41
2023-01-02T03:48:00.020Z,96552.16
2023-01-02T03:50:34.345Z,96556.44
2023-01-02T03:53:01.323Z,96557.44
2023-01-02T03:55:31.979Z,96558.19
2023-01-02T03:58:13.505Z,96564.50
2023-01-02T04:00:51.088Z,96567.28
2023-01-02T04:03:25.810Z,96571.91
2023-01-02T04:06:06.589Z,96575.34
2023-01-02T04:08:48.010Z,96575.91
2023-01-02T04:11:19.221Z,96570.72
2023-01-02T04:13:51.244Z,96575.00
2023-01-02T04:16:22.954Z,96570.47
2023-01-02T04:18:57.495Z,96580.94
2023-01-02T04:21:27.836Z,96583.41
2023-01-02T04:24:02.793Z,96596.34
2023-01-02T04:26:59.374Z,96593.72
2023-01-02T04:29:26.097Z,96588.22
2023-01-02T04:31:58.441Z,96582.56
2023-01-02T04:34:28.566Z,96591.41
2023-01-02T04:36:55.275Z,96595.69
2023-01-02T04:39:23.538Z,96590.09
2023-01-02T04:41:50.235Z,96586.38
2023-01-02T04:44:16.959Z,96589.00
2023-01-02T04:46:43.661Z,96593.41
2023-01-02T04:49:10.661Z,96593.50
2023-01-02T04:51:37.270Z,96590.09
2023-01-02T04:54:04.154Z,96588.25
2023-01-02T04:56:30.781Z,96591.44
2023-01-02T04:58:57.371Z,96601.75
2023-01-02T05:01:24.094Z,96601.66
2023-01-02T05:03:52.942Z,96599.44
2023-01-02T05:06:19.748Z,96605.06
2023-01-02T05:08:46.445Z,96604.78
2023-01-02T05:11:18.185Z,96602.56
2023-01-02T05:13:45.149Z,96599.19
2023-01-02T05:16:12.423Z,96605.50
2023-01-02T05:18:39.105Z,96608.28
2023-01-02T05:21:28.603Z,96607.94
2023-01-02T05:23:56.400Z,96608.97
2023-01-02T05:26:23.031Z,96611.94
2023-01-02T05:28:52.428Z,96616.66
2023-01-02T05:31:19.213Z,96616.41
2023-01-02T05:33:50.892Z,96614.03
2023-01-02T05:36:17.495Z,96612.44
2023-01-02T05:38:44.104Z,96613.47
2023-01-02T05:41:10.735Z,96612.31
2023-01-02T05:43:38.226Z,96595.03
2023-01-02T05:46:07.996Z,96602.03
2023-01-02T05:48:35.020Z,96602.88
2023-01-02T05:51:05.769Z,96602.66
2023-01-02T05:53:32.781Z,96601.31
2023-01-02T05:56:11.028Z,96607.50
2023-01-02T05:58:40.128Z,96605.41
2023-01-02T06:01:09.246Z,96602.38
2023-01-02T06:03:36.413Z,96604.78
2023-01-02T06:06:08.102Z,96599.16
2023-01-02T06:08:35.777Z,96604.50
2023-01-02T06:11:03.463Z,96608.09
2023-01-02T06:13:31.627Z,96610.94
2023-01-02T06:15:59.742Z,96616.41
2023-01-02T06:18:27.185Z,96612.09
2023-01-02T06:21:01.492Z,96607.50
2023-01-02T06:23:28.358Z,96614.19
2023-01-02T06:25:55.264Z,96614.50
2023-01-02T06:28:22.146Z,96610.09
2023-01-02T06:30:48.750Z,96610.91
2023-01-02T06:33:15.339Z,96605.88
2023-01-02T06:35:42.552Z,96601.53
2023-01-02T06:38:09.169Z,96606.50
2023-01-02T06:40:35.761Z,96605.16
2023-01-02T06:43:02.353Z,96609.78
2023-01-02T06:45:28.996Z,96613.69
2023-01-02T06:48:00.409Z,96619.94
2023-01-02T06:50:32.956Z,96614.28
2023-01-02T06:53:01.672Z,96611.94
2023-01-02T06:55:28.261Z,96610.03
2023-01-02T06:57:54.887Z,96607.56
2023-01-02T07:00:21.554Z,96609.53
2023-01-02T07:02:48.326Z,96612.31
2023-01-02T07:05:19.752Z,96603.91
2023-01-02T07:07:49.357Z,96607.91
2023-01-02T07:10:16.010Z,96612.44
2023-01-02T07:12:42.590Z,96606.63
2023-01-02T07:15:09.555Z,96619.19
2023-01-02T07:17:36.136Z,96615.00
2023-01-02T07:20:02.854Z,96611.47
2023-01-02T07:22:29.493Z,96619.69
2023-01-02T07:24:56.107Z,96626.44
2023-01-02T07:27:22.751Z,96625.06
2023-01-02T07:29:49.418Z,96624.47
2023-01-02T07:32:16.097Z,96627.97
2023-01-02T07:34:42.697Z,96625.81
2023-01-02T07:37:09.285Z,96626.13
2023-01-02T07:39:35.891Z,96630.81
2023-01-02T07:42:02.484Z,96627.16
2023-01-02T07:44:29.127Z,96622.75
2023-01-02T07:46:55.752Z,96622.50
2023-01-02T07:49:22.324Z,96627.84
2023-01-02T07:51:49.083Z,96629.28
2023-01-02T07:54:15.671Z,96627.28
2023-01-02T07:56:42.316Z,96625.69
2023-01-02T07:59:09.072Z,96624.94
2023-01-02T08:01:35.802Z,96623.59
2023-01-02T08:04:02.536Z,96629.16
2023-01-02T08:06:29.263Z,96629.47
2023-01-02T08:08:55.853Z,96621.88
2023-01-02T08:11:23.080Z,96619.06
2023-01-02T08:13:50.199Z,96619.69
2023-01-02T08:16:21.800Z,96620.28
2023-01-02T08:18:51.520Z,96619.69
2023-01-02T08:21:18.435Z,96615.97
2023-01-02T08:23:45.025Z,96607.66
2023-01-02T08:26:11.998Z,96609.97
2023-01-02T08:28:40.461Z,96609.97
2023-01-02T08:31:15.686Z,96609.31
2023-01-02T08:33:42.651Z,96603.88
2023-01-02T08:36:09.829Z,96610.09
2023-01-02T08:38:36.669Z,96611.41
2023-01-02T08:41:04.089Z,96609.03
2023-01-02T08:43:34.542Z,96606.38
2023-01-02T08:46:09.305Z,96607.47
2023-01-02T08:48:36.521Z,96599.44
2023-01-02T08:51:04.232Z,96599.44
2023-01-02T08:53:30.836Z,96597.53
2023-01-02T08:56:27.370Z,96594.06
2023-01-02T08:58:59.004Z,96595.16
2023-01-02T09:01:27.497Z,96600.25
2023-01-02T09:03:54.758Z,96604.28
2023-01-02T09:06:23.000Z,96604.50
2023-01-02T09:08:52.859Z,96598.88
2023-01-02T09:11:22.790Z,96604.78
2023-01-02T09:13:49.402Z,96609.88
2023-01-02T09:16:16.061Z,96599.56
2023-01-02T09:18:42.721Z,96607.75
2023-01-02T09:21:09.987Z,96595.81
2023-01-02T09:23:36.668Z,96592.41
2023-01-02T09:26:06.155Z,96598.75
2023-01-02T09:28:35.571Z,96598.44
2023-01-02T09:31:12.536Z,96599.78
2023-01-02T09:33:41.180Z,96598.47
2023-01-02T09:36:09.488Z,96600.06
2023-01-02T09:38:36.190Z,96598.84
2023-01-02T09:41:11.099Z,96597.63
2023-01-02T09:43:51.882Z,96593.31
2023-01-02T09:46:43.937Z,96590.50
2023-01-02T09:49:18.185Z,96592.97
2023-01-02T09:51:45.505Z,96589.81
2023-01-02T09:54:33.567Z,96589.34
2023-01-02T09:57:28.577Z,96581.88
2023-01-02T10:00:13.435Z,96581.69
2023-01-02T10:02:52.048Z,96579.53
2023-01-02T10:05:49.963Z,96571.78
2023-01-02T10:08:27.910Z,96579.50
2023-01-02T10:11:09.859Z,96569.72
2023-01-02T10:16:38.893Z,96558.31
2023-01-02T10:19:15.089Z,96554.50
2023-01-02T10:21:44.188Z,96558.59
2023-01-02T10:24:26.040Z,96547.88
2023-01-02T10:26:54.082Z,96539.88
2023-01-02T10:29:35.348Z,96545.44
2023-01-02T10:32:12.804Z,96543.66
2023-01-02T10:34:51.169Z,96540.81
2023-01-02T10:37:17.865Z,96548.28
2023-01-02T10:39:48.787Z,96534.44
2023-01-02T10:42:16.454Z,96540.06
2023-01-02T10:44:45.439Z,96534.63
2023-01-02T10:47:38.176Z,96541.88
2023-01-02T10:50:17.135Z,96541.69
2023-01-02T10:53:09.350Z,96540.69
2023-01-02T10:55:41.982Z,96538.28
2023-01-02T10:58:22.949Z,96536.25
2023-01-02T11:00:51.807Z,96537.00
2023-01-02T11:03:25.335Z,96532.47
2023-01-02T11:05:54.642Z,96531.72
2023-01-02T11:08:43.348Z,96520.91
2023-01-02T11:11:15.142Z,96520.50
2023-01-02T11:13:52.142Z,96508.81
2023-01-02T11:16:20.678Z,96515.50
2023-01-02T11:18:54.311Z,96505.13
2023-01-02T11:21:44.422Z,96510.72
2023-01-02T11:24:16.423Z,96504.88
2023-01-02T11:26:45.329Z,96500.81
2023-01-02T11:29:21.126Z,96501.47
2023-01-02T11:31:57.700Z,96502.28
2023-01-02T11:34:40.224Z,96495.22
2023-01-02T11:37:13.001Z,96479.78
2023-01-02T11:39:40.515Z,96492.94
2023-01-02T11:42:42.099Z,96486.16
2023-01-02T11:45:10.067Z,96475.16
2023-01-02T11:47:51.709Z,96479.69
2023-01-02T11:50:23.994Z,96470.03
2023-01-02T11:53:11.649Z,96473.25
2023-01-02T11:55:44.033Z,96470.06
2023-01-02T11:58:58.723Z,96464.97
2023-01-02T12:01:29.182Z,96464.84
2023-01-02T12:03:56.666Z,96456.78
2023-01-02T12:06:43.386Z,96457.88
2023-01-02T12:09:20.010Z,96461.78
2023-01-02T12:12:01.966Z,96466.66
2023-01-02T12:14:54.765Z,96458.19
2023-01-02T12:17:46.564Z,96457.81
2023-01-02T12:20:27.353Z,96466.25
2023-01-02T12:23:12.566Z,96463.38
2023-01-02T12:25:47.451Z,96456.75
2023-01-02T12:28:26.137Z,96464.06
2023-01-02T12:31:31.262Z,96460.22
2023-01-02T12:34:30.237Z,96457.13
2023-01-02T12:37:18.259Z,96464.03
2023-01-02T12:40:03.057Z,96460.28
2023-01-02T12:42:35.589Z,96469.84
2023-01-02T12:45:02.402Z,96458.09
2023-01-02T12:47:41.006Z,96460.13
2023-01-02T12:50:48.777Z,96461.59
2023-01-02T12:53:23.198Z,96460.63
2023-01-02T12:55:59.508Z,96462.16
2023-01-02T12:58:37.893Z,96463.34
2023-01-02T13:01:12.791Z,96455.91
2023-01-02T13:03:46.020Z,96460.28
2023-01-02T13:06:43.440Z,96460.28
2023-01-02T13:09:25.965Z,96465.47
2023-01-02T13:12:04.696Z,96472.25
2023-01-02T13:14:42.189Z,96486.84
2023-01-02T13:17:35.321Z,96472.69
2023-01-02T13:20:14.839Z,96477.06
2023-01-02T13:22:44.299Z,96477.16
2023-01-02T13:25:17.359Z,96486.25
2023-01-02T13:27:45.844Z,96472.44
2023-01-02T13:30:50.480Z,96485.53
2023-01-02T13:33:37.783Z,96482.78
2023-01-02T13:36:36.580Z,96479.94
2023-01-02T13:39:16.679Z,96478.34
2023-01-02T13:42:13.887Z,96480.84
2023-01-02T13:44:48.579Z,96481.00
2023-01-02T13:47:25.531Z,96480.78
2023-01-02T13:50:18.476Z,96483.91
2023-01-02T13:53:09.877Z,96499.25
2023-01-02T13:55:37.429Z,96507.72
2023-01-02T13:58:19.117Z,96519.25
2023-01-02T14:00:55.229Z,96527.19
2023-01-02T14:03:25.092Z,96534.28
2023-01-02T14:06:00.731Z,96534.63
2023-01-02T14:08:34.627Z,96552.81
2023-01-02T14:11:19.721Z,96546.06
2023-01-02T14:13:48.113Z,96561.22
2023-01-02T14:16:27.877Z,96554.34
2023-01-02T14:19:12.674Z,96565.19
2023-01-02T14:21:50.167Z,96574.91
2023-01-02T14:24:36.648Z,96570.59
2023-01-02T14:27:15.068Z,96577.25
2023-01-02T14:29:56.066Z,96587.47
2023-01-02T14:32:34.634Z,96583.91
2023-01-02T14:35:23.234Z,96589.69
2023-01-02T14:37:52.755Z,96611.69
2023-01-02T14:40:35.309Z,96613.97
2023-01-02T14:43:23.345Z,96615.50
2023-01-02T14:45:53.789Z,96617.72
2023-01-02T14:48:31.044Z,96634.25
2023-01-02T14:51:03.236Z,96643.66
2023-01-02T14:53:37.773Z,96651.91
2023-01-02T14:56:18.285Z,96654.88
2023-01-02T14:58:47.654Z,96666.34
2023-01-02T15:01:42.848Z,96666.31
2023-01-02T15:04:19.354Z,96665.41
2023-01-02T15:06:51.652Z,96664.09
2023-01-02T15:09:24.203Z,96660.47
2023-01-02T15:12:14.399Z,96664.75
2023-01-02T15:14:42.479Z,96678.13
2023-01-02T15:17:18.105Z,96682.44
2023-01-02T15:19:45.044Z,96682.84
2023-01-02T15:22:16.104Z,96677.78
2023-01-02T15:24:53.881Z,96682.31
2023-01-02T15:27:27.880Z,96681.22
2023-01-02T15:29:57.323Z,96671.63
2023-01-02T15:32:29.581Z,96683.56
2023-01-02T15:35:13.228Z,96693.66
2023-01-02T15:37:45.216Z,96700.91
2023-01-02T15:40:31.893Z,96687.22
2023-01-02T15:43:21.089Z,96703.56
2023-01-02T15:45:51.548Z,96702.13
2023-01-02T15:48:27.563Z,96703.88
2023-01-02T15:50:57.294Z,96710.91
2023-01-02T15:53:28.264Z,96717.84
2023-01-02T15:55:55.296Z,96718.13
2023-01-02T15:58:35.090Z,96732.84
2023-01-02T16:01:13.557Z,96732.41
2023-01-02T16:04:03.103Z,96738.78
2023-01-02T16:06:45.006Z,96745.19
2023-01-02T16:09:22.693Z,96748.38
2023-01-02T16:11:54.165Z,96751.38
2023-01-02T16:14:31.979Z,96753.34
2023-01-02T16:16:58.591Z,96760.34
2023-01-02T16:19:38.296Z,96768.41
2023-01-02T16:22:10.651Z,96771.16
2023-01-02T16:24:43.984Z,96774.22
2023-01-02T16:27:25.707Z,96786.31
2023-01-02T16:29:54.280Z,96790.69
2023-01-02T16:32:31.374Z,96788.88
2023-01-02T16:35:15.857Z,96798.38
2023-01-02T16:37:59.880Z,96800.44
2023-01-02T16:41:01.782Z,96795.59
2023-01-02T16:43:13.896Z,96813.09
2023-01-02T16:45:41.294Z,96807.31
2023-01-02T16:48:14.492Z,96818.94
2023-01-02T16:50:43.344Z,96815.63
2023-01-02T16:53:15.772Z,96817.31
2023-01-02T16:55:42.390Z,96832.13
2023-01-02T16:58:09.116Z,96828.31
2023-01-02T17:00:41.297Z,96826.41
2023-01-02T17:03:16.563Z,96837.41
2023-01-02T17:05:45.290Z,96831.56
2023-01-02T17:08:11.902Z,96839.22
2023-01-02T17:10:38.583Z,96845.69
2023-01-02T17:13:05.187Z,96844.59
2023-01-02T17:15:34.820Z,96852.09
2023-01-02T17:18:01.391Z,96853.28
2023-01-02T17:20:28.379Z,96856.41
2023-01-02T17:22:54.992Z,96860.88
2023-01-02T17:25:21.759Z,96864.00
2023-01-02T17:27:48.375Z,96867.28
2023-01-02T17:30:15.358Z,96873.88
2023-01-02T17:32:43.589Z,96870.75
2023-01-02T17:35:11.497Z,96877.13
2023-01-02T17:37:41.156Z,96880.41
2023-01-02T17:40:10.484Z,96877.72
2023-01-02T17:42:38.662Z,96882.53
2023-01-02T17:45:05.766Z,96876.06
2023-01-02T17:47:59.897Z,96884.13
2023-01-02T17:50:19.160Z,96880.88
2023-01-02T17:52:45.770Z,96881.44
2023-01-02T17:55:12.504Z,96879.78
2023-01-02T17:57:41.152Z,96884.06
2023-01-02T18:00:11.355Z,96881.94
2023-01-02T18:02:38.300Z,96883.53
2023-01-02T18:05:05.530Z,96888.38
2023-01-02T18:07:32.612Z,96886.03
2023-01-02T18:10:08.854Z,96893.81
2023-01-02T18:12:39.205Z,96900.03
2023-01-02T18:15:14.066Z,96901.47
2023-01-02T18:17:40.809Z,96907.38
2023-01-02T18:20:19.348Z,96904.72
2023-01-02T18:22:50.025Z,96912.22
2023-01-02T18:25:32.396Z,96903.38
2023-01-02T18:28:25.528Z,96912.22
2023-01-02T18:30:56.386Z,96921.88
2023-01-02T18:33:23.742Z,96920.25
2023-01-02T18:35:59.507Z,96922.16
2023-01-02T18:38:37.800Z,96916.78
2023-01-02T18:41:16.801Z,96922.94
2023-01-02T18:43:45.679Z,96921.06
2023-01-02T18:46:16.249Z,96917.28
2023-01-02T18:48:43.240Z,96920.78
2023-01-02T18:51:17.418Z,96927.22
2023-01-02T18:53:48.516Z,96922.91
2023-01-02T18:56:18.264Z,96924.25
2023-01-02T18:58:51.656Z,96931.75
2023-01-02T19:01:24.899Z,96928.81
2023-01-02T19:03:56.708Z,96932.53
2023-01-02T19:06:26.033Z,96919.72
2023-01-02T19:08:52.750Z,96918.09
2023-01-02T19:11:41.650Z,96930.47
2023-01-02T19:14:35.277Z,96922.38
2023-01-02T19:17:12.694Z,96941.72
2023-01-02T19:19:40.896Z,96938.78
2023-01-02T19:22:13.727Z,96946.28
2023-01-02T19:24:40.400Z,96943.88
2023-01-02T19:27:21.241Z,96955.09
2023-01-02T19:29:52.408Z,96956.19
2023-01-02T19:32:34.690Z,96953.22
2023-01-02T19:35:30.469Z,96952.97
2023-01-02T19:37:57.300Z,96955.63
2023-01-02T19:40:24.292Z,96954.28
2023-01-02T19:42:52.917Z,96954.56
2023-01-02T19:45:22.168Z,96945.44
2023-01-02T19:47:49.878Z,96948.06
2023-01-02T19:50:23.153Z,96954.03
2023-01-02T19:52:50.070Z,96955.38
2023-01-02T19:55:20.340Z,96957.25
2023-01-02T19:57:47.635Z,96966.91
2023-01-02T20:00:16.265Z,96968.50
2023-01-02T20:02:45.608Z,96967.97
2023-01-02T20:05:19.281Z,96961.28
2023-01-02T20:07:48.392Z,96957.50
2023-01-02T20:10:15.301Z,96964.22
2023-01-02T20:12:42.185Z,96965.28
2023-01-02T20:15:10.917Z,96969.75
2023-01-02T20:17:38.813Z,96968.94
2023-01-02T20:20:07.552Z,96976.75
2023-01-02T20:22:34.641Z,96979.41
2023-01-02T20:25:01.880Z,96981.25
2023-01-02T20:27:28.657Z,96978.00
2023-01-02T20:29:55.407Z,96977.75
2023-01-02T20:32:23.337Z,96979.63
2023-01-02T20:34:50.561Z,96984.31
2023-01-02T20:37:21.097Z,96986.31
2023-01-02T20:39:52.180Z,96988.19
2023-01-02T20:42:19.720Z,96995.19
2023-01-02T20:44:47.122Z,96992.75
2023-01-02T20:47:13.766Z,97000.44
2023-01-02T20:49:40.643Z,97005.53
2023-01-02T20:52:08.271Z,97003.72
2023-01-02T20:54:35.392Z,97003.34
2023-01-02T20:57:01.977Z,96999.97
2023-01-02T20:59:28.628Z,97001.56
2023-01-02T21:01:55.490Z,97003.72
2023-01-02T21:04:24.894Z,96999.97
2023-01-02T21:06:57.437Z,97002.09
2023-01-02T21:09:24.103Z,97000.41
2023-01-02T21:11:50.719Z,96999.28
2023-01-02T21:14:17.294Z,97000.88
2023-01-02T21:16:43.930Z,96993.16
2023-01-02T21:19:10.568Z,96997.69
2023-01-02T21:21:37.272Z,97010.03
2023-01-02T21:24:04.053Z,97008.09
2023-01-02T21:26:30.653Z,97022.03
2023-01-02T21:28:57.404Z,97019.16
2023-01-02T21:31:24.134Z,97022.09
2023-01-02T21:33:50.789Z,97019.91
2023-01-02T21:36:17.395Z,97018.66
2023-01-02T21:38:44.676Z,97023.50
2023-01-02T21:41:29.993Z,97028.66
2023-01-02T21:43:56.779Z,97023.56
2023-01-02T21:46:23.457Z,97028.13
2023-01-02T21:48:50.129Z,97027.09
2023-01-02T21:51:16.773Z,97030.84
2023-01-02T21:53:43.417Z,97036.91
2023-01-02T21:56:10.144Z,97043.06
2023-01-02T21:58:36.761Z,97047.91
2023-01-02T22:01:03.572Z,97049.94
2023-01-02T22:03:30.258Z,97055.84
2023-01-02T22:05:57.489Z,97054.72
2023-01-02T22:08:24.122Z,97058.84
2023-01-02T22:10:50.809Z,97065.59
2023-01-02T22:13:17.428Z,97053.88
2023-01-02T22:15:45.711Z,97053.44
2023-01-02T22:18:12.683Z,97059.78
2023-01-02T22:20:39.299Z,97065.00
2023-01-02T22:23:05.998Z,97065.06
2023-01-02T22:25:32.958Z,97073.09
2023-01-02T22:27:59.862Z,97069.31
2023-01-02T22:30:33.993Z,97064.56
2023-01-02T22:33:01.801Z,97064.38
2023-01-02T22:35:28.605Z,97059.25
2023-01-02T22:37:55.359Z,97067.78
2023-01-02T22:40:21.992Z,97066.59
2023-01-02T22:43:03.785Z,97068.72
2023-01-02T22:45:41.494Z,97078.75
2023-01-02T22:48:19.485Z,97069.00
2023-01-02T22:50:47.299Z,97073.53
2023-01-02T22:53:26.531Z,97077.94
2023-01-02T22:55:53.525Z,97068.53
2023-01-02T22:58:20.680Z,97072.81
2023-01-02T23:00:55.661Z,97077.06
2023-01-02T23:03:22.384Z,97072.31
2023-01-02T23:05:49.010Z,97077.13
2023-01-02T23:08:15.714Z,97087.25
2023-01-02T23:10:42.351Z,97080.28
2023-01-02T23:13:08.951Z,97081.38
2023-01-02T23:15:35.678Z,97083.03
2023-01-02T23:18:20.772Z,97076.81
2023-01-02T23:20:47.360Z,97080.97
2023-01-02T23:23:13.980Z,97081.47
2023-01-02T23:25:43.576Z,97076.22
2023-01-02T23:28:16.576Z,97081.34
2023-01-02T23:30:56.918Z,97095.25
2023-01-02T23:33:23.519Z,97091.78
2023-01-02T23:35:52.327Z,97082.13
2023-01-02T23:38:19.245Z,97090.47
2023-01-02T23:40:45.805Z,97091.81
2023-01-02T23:43:12.407Z,97089.69
2023-01-02T23:45:39.078Z,97088.59
2023-01-02T23:48:05.964Z,97093.69
2023-01-02T23:50:32.560Z,97084.00
2023-01-02T23:52:59.165Z,97092.84
2023-01-02T23:55:25.790Z,97090.78
2023-01-02T23:57:52.344Z,97091.31
